메인 페이지
METAR-TAF:

METAR-TAF

공항 :

McAllen, 텍사스, 미국

위도: 26-10-47N, 경도: 098-14-40W, 고도: 32m

현재 날씨관측

예보는 33분 전, 14:53시(UTC)에 발표되었습니다.
남동20kt, 순간 최대 풍속 26kt
온도 33°C
습도 67%
기압 1007 hPa
시정: 8.0km
고도 2000ft 상공 흐림
연무

METAR: KMFE 251453Z 14020G26KT 5SM HZ OVC020 33/26 A2975 RMK AO2 PK WND 13026/1452 SLP072 T03280256 51011

시각: 10:26 (15:26 UTC)

예보

예보는 4 시간 1분 전, 11:25시(UTC)에 발표되었습니다.
예보 대상 시간: 25일 12시부터 26일 12시까지 (UTC)
남동9kt, 순간 최대 풍속 19kt
시정: 9.7km
고도 1300ft 상공 흐림
박무, 연무
25일 1500시부터 (UTC)
남남동11kt, 순간 최대 풍속 19kt
시정: 10km
고도 3500ft 상공 구름 조금
25일 1900시부터 (UTC)
남남동15kt, 순간 최대 풍속 25kt
시정: 10km
고도 4500ft 상공 구름 조금
고도 25000ft 상공 구름 보통
26일 0000시부터 (UTC)
남동15kt
시정: 10km
고도 25000ft 상공 구름 조금
26일 0400시부터 (UTC)
남동12kt
시정: 10km
고도 2000ft 상공 구름 많음

TAF: KMFE 251125Z 2512/2612 14009G19KT 6SM BR HZ OVC013 FM251500 15011G19KT P6SM FEW035 FM251900 15015G25KT P6SM FEW045 SCT250 FM260000 14015KT P6SM FEW250 FM260400 14012KT P6SM BKN020

4,000개 이상의 공항 관측 자료 및 예보 (METAR 및 TAF 보고).

지도상에서 검색 가능한 기상관측소가 노란 점과 빨간 점으로 표시되어 있습니다.

기상관측소 명을 보려면 표시 위로 마우스를 이동하세요.

날씨 관측과 예보를 보려면 클릭하세요.

지도 변경 : 확대하려면 엑스 표시가 있는 녹색 버튼, 축소하려면 빼기 표시가 있는 녹색 버튼, 다음 페이지의 지도를 보려면 녹색 화살표를 클릭하세요.


METAR-TAF: